Springfield, IL (62794)

6:46 AM CDT on May 30, 2015 (GMT -0500)
Southwest Springfield | | Change Station
CLOSE
Current Station
Personal Weather Station
Location: Springfield, IL
Elevation: 607 ft
Nearby Weather Stations

Elev 607 ft 39.76 °N, 89.68 °W | Updated 5 seconds ago

Overcast
Overcast
65.5 °F
Feels Like 65.5 °F
N
3.5
Wind Variable Wind from ESE
Gusts 3.5 mph

Today
High -- | Low -- °F
--% Chance of Precip.
Yesterday
High -- | Low -- °F
Precip. -- in
5:33 AM 8:19 PM
Waxing Gibbous, 90% visible
Pressure 29.98 in
Visibility 10.0 miles
Clouds Mostly Cloudy 400 ft
Mostly Cloudy 3300 ft
Overcast 10000 ft
Dew Point 65 °F
Humidity 99%
Rainfall 0.70 in
Snow Depth Not available.
UV 0 out of 12
Pollen .90 out of 12
Air Quality Not available.
Flu Activity Sporadic
SPECI KSPI 301118Z 00000KT 10SM BKN004 BKN033 OVC100 20/18 A2998 RMK AO2 T02000183

More Conditions Fewer Conditions

Pressure 29.98 in
Visibility 10.0 miles
Clouds Mostly Cloudy 400 ft
Mostly Cloudy 3300 ft
Overcast 10000 ft
Dew Point 65 °F
Humidity 99%
Rainfall 0.70 in
Snow Depth Not available.
UV 0 out of 12
Pollen .90 out of 12
Air Quality Not available.
Flu Activity Sporadic
SPECI KSPI 301118Z 00000KT 10SM BKN004 BKN033 OVC100 20/18 A2998 RMK AO2 T02000183

More Conditions Fewer Conditions

10-Day Weather Forecast

Almanac

Astronomy

May. 30, 2015 Rise Set
Actual Time
Civil Twilight
Nautical Twilight
Astronomical Twilight
Moon
Length of Visible Light
Length of Day
Tomorrow will be .
, % of the Moon is Illuminated

Today's Extremes

State Highs State Lows

Community

WunderPhotos

Upload Photos

1,825,484 photos uploaded!

WunderBlogs® & News

Nearby

Air Quality

  Air Quality AQ Index Pollutant
Not available.

Snow Depth

Station Depth Elevation

Earthquake Activity

City Distance Mag. Time & Date
Minimum magnitude displayed is 2.5.

Coastal Water Temperatures

Place Temperature

Stations

Nearby Weather Stations

Station Location Temp. Windchill Dew Point Humidity Wind Precip. Elev Updated Type